首页
METAR-TAF:

METAR-TAF

机场 :

杰尔, 匈牙利

纬度: 47-37-28N, 经度: 017-48-49E, 海拔: 129米

当前天气观测

该预报发布于42分钟前的02:45 UTC
风速8节,风向东南,在南转南东之间变化
温度 18°C
湿度 94%
气压 1013 hPa
能见度10公里或以上
多云层高于4300英尺
阴天层高于10300英尺
附近有雷暴, 雨

METAR: LHPR 250245Z AUTO 13008KT 100V160 9999 VCTSRA BKN043 OVC103 //////CB 18/17 Q1013 RERA BECMG NSW

时间: 05:27 (03:27 UTC)

预报

该预报发布于1小时和12分钟前的02:15 UTC
预报有效从25日的 03点(UTC)到 25日的 12点(UTC)
风速8节,风向东南
能见度10公里或以上
散云层高于3300英尺, 积雨云.
多云层高于5000英尺
雷暴, 小雨, 小阵雨
短暂存在
从 25日的 03点(UTC)到 25日的 04点(UTC)
风速20节,风向多变,有时为35节阵风
能見度: 3000
雷暴, 大雨, 冰雹
成为
从 25日的 04点(UTC)到 25日的 06点(UTC)
能见度10公里或以上
1500米以下无云,无积雨云
成为
从 25日的 10点(UTC)到 25日的 12点(UTC)
风速15节,风向南转南东

TAF: LHPR 250215Z 2503/2512 14008KT 9999 -TSRA -SHRA SCT033CB BKN050 TEMPO 2503/2504 VRB20G35KT 3000 +TSRAGR BECMG 2504/2506 CAVOK BECMG 2510/2512 16015KT

超过4000个机场的气象观测和天气预报(METAR&TAF报告)。

可查询的气象台以黄色和红色小点在地图上表示。

将鼠标移到小点上方,可查看气象台名称。

然后点击查看天气观测和预报。

如需切换地图:点击带黑十字的绿色按钮放大地图;点击带横线的绿色按钮缩小地图;或者点击绿色箭头查看邻近地区的地图。


METAR-TAF: